sensor_id;sensor_type;location;lat;lon;timestamp;temperature;humidity
15257;DHT22;7731;50.720;6.912;2024-02-26T00:01:46;8.10;38.10
15257;DHT22;7731;50.720;6.912;2024-02-26T00:04:28;8.10;91.30
15257;DHT22;7731;50.720;6.912;2024-02-26T00:07:01;8.00;99.90
15257;DHT22;7731;50.720;6.912;2024-02-26T00:09:32;8.00;99.90
15257;DHT22;7731;50.720;6.912;2024-02-26T00:14:54;7.90;99.90
15257;DHT22;7731;50.720;6.912;2024-02-26T00:17:25;7.80;99.90
15257;DHT22;7731;50.720;6.912;2024-02-26T00:20:01;7.70;99.90
15257;DHT22;7731;50.720;6.912;2024-02-26T00:22:36;7.70;1.00
15257;DHT22;7731;50.720;6.912;2024-02-26T00:25:07;7.70;1.00
15257;DHT22;7731;50.720;6.912;2024-02-26T00:27:45;7.60;1.00
15257;DHT22;7731;50.720;6.912;2024-02-26T00:30:15;7.60;1.00
15257;DHT22;7731;50.720;6.912;2024-02-26T00:32:46;7.50;99.90
15257;DHT22;7731;50.720;6.912;2024-02-26T00:35:19;7.40;99.90
15257;DHT22;7731;50.720;6.912;2024-02-26T00:37:58;7.30;1.00
15257;DHT22;7731;50.720;6.912;2024-02-26T00:40:31;7.30;1.00
15257;DHT22;7731;50.720;6.912;2024-02-26T00:43:01;7.20;1.00
15257;DHT22;7731;50.720;6.912;2024-02-26T00:45:32;7.20;99.90
15257;DHT22;7731;50.720;6.912;2024-02-26T00:48:03;7.20;1.00
15257;DHT22;7731;50.720;6.912;2024-02-26T00:50:37;7.20;1.00
15257;DHT22;7731;50.720;6.912;2024-02-26T00:53:07;7.20;1.00
15257;DHT22;7731;50.720;6.912;2024-02-26T00:55:40;7.20;1.00
15257;DHT22;7731;50.720;6.912;2024-02-26T00:58:11;7.10;1.00
15257;DHT22;7731;50.720;6.912;2024-02-26T01:00:41;7.10;1.00
15257;DHT22;7731;50.720;6.912;2024-02-26T01:03:12;7.10;1.00
15257;DHT22;7731;50.720;6.912;2024-02-26T01:05:45;7.00;24.30
15257;DHT22;7731;50.720;6.912;2024-02-26T01:08:16;7.00;99.90
15257;DHT22;7731;50.720;6.912;2024-02-26T01:10:46;7.00;99.90
15257;DHT22;7731;50.720;6.912;2024-02-26T01:13:16;7.00;99.90
15257;DHT22;7731;50.720;6.912;2024-02-26T01:15:47;6.90;99.90
15257;DHT22;7731;50.720;6.912;2024-02-26T01:18:20;6.90;99.90
15257;DHT22;7731;50.720;6.912;2024-02-26T01:20:55;6.90;99.90
15257;DHT22;7731;50.720;6.912;2024-02-26T01:23:25;6.90;99.90
15257;DHT22;7731;50.720;6.912;2024-02-26T01:25:58;6.90;99.90
15257;DHT22;7731;50.720;6.912;2024-02-26T01:28:29;6.90;99.90
15257;DHT22;7731;50.720;6.912;2024-02-26T01:31:00;6.80;99.90
15257;DHT22;7731;50.720;6.912;2024-02-26T01:33:38;6.80;99.90
15257;DHT22;7731;50.720;6.912;2024-02-26T01:36:13;6.80;99.90
15257;DHT22;7731;50.720;6.912;2024-02-26T01:38:44;6.70;99.90
15257;DHT22;7731;50.720;6.912;2024-02-26T01:41:22;6.70;99.90
15257;DHT22;7731;50.720;6.912;2024-02-26T01:43:55;6.70;99.90
15257;DHT22;7731;50.720;6.912;2024-02-26T01:46:33;6.60;99.90
15257;DHT22;7731;50.720;6.912;2024-02-26T01:49:08;6.60;99.90
15257;DHT22;7731;50.720;6.912;2024-02-26T01:51:45;6.60;99.90
15257;DHT22;7731;50.720;6.912;2024-02-26T01:54:16;6.60;99.90
15257;DHT22;7731;50.720;6.912;2024-02-26T01:56:50;6.60;99.90
15257;DHT22;7731;50.720;6.912;2024-02-26T01:59:20;6.60;99.90
15257;DHT22;7731;50.720;6.912;2024-02-26T02:01:55;6.60;99.90
15257;DHT22;7731;50.720;6.912;2024-02-26T02:04:29;6.60;99.90
15257;DHT22;7731;50.720;6.912;2024-02-26T02:07:03;6.60;99.90
15257;DHT22;7731;50.720;6.912;2024-02-26T02:09:35;6.60;99.90
15257;DHT22;7731;50.720;6.912;2024-02-26T02:12:06;6.60;99.90
15257;DHT22;7731;50.720;6.912;2024-02-26T02:14:44;6.60;99.90
15257;DHT22;7731;50.720;6.912;2024-02-26T02:17:15;6.60;99.90
15257;DHT22;7731;50.720;6.912;2024-02-26T02:19:45;6.60;99.90
15257;DHT22;7731;50.720;6.912;2024-02-26T02:22:27;6.60;99.90
15257;DHT22;7731;50.720;6.912;2024-02-26T02:24:59;6.50;99.90
15257;DHT22;7731;50.720;6.912;2024-02-26T02:27:31;6.50;99.90
15257;DHT22;7731;50.720;6.912;2024-02-26T02:30:13;6.50;99.90
15257;DHT22;7731;50.720;6.912;2024-02-26T02:32:50;6.50;99.90
15257;DHT22;7731;50.720;6.912;2024-02-26T02:35:20;6.50;99.90
15257;DHT22;7731;50.720;6.912;2024-02-26T02:37:58;6.40;99.90
15257;DHT22;7731;50.720;6.912;2024-02-26T02:40:28;6.40;99.90
15257;DHT22;7731;50.720;6.912;2024-02-26T02:43:02;6.40;99.90
15257;DHT22;7731;50.720;6.912;2024-02-26T02:45:34;6.40;99.90
15257;DHT22;7731;50.720;6.912;2024-02-26T02:48:07;6.30;99.90
15257;DHT22;7731;50.720;6.912;2024-02-26T02:50:44;6.30;99.90
15257;DHT22;7731;50.720;6.912;2024-02-26T02:56:06;6.30;99.90
15257;DHT22;7731;50.720;6.912;2024-02-26T02:58:36;6.30;99.90
15257;DHT22;7731;50.720;6.912;2024-02-26T03:01:06;6.30;99.90
15257;DHT22;7731;50.720;6.912;2024-02-26T03:03:37;6.30;99.90
15257;DHT22;7731;50.720;6.912;2024-02-26T03:06:07;6.30;99.90
15257;DHT22;7731;50.720;6.912;2024-02-26T03:08:40;6.40;99.90
15257;DHT22;7731;50.720;6.912;2024-02-26T03:11:18;6.40;99.90
15257;DHT22;7731;50.720;6.912;2024-02-26T03:13:53;6.50;99.90
15257;DHT22;7731;50.720;6.912;2024-02-26T03:16:29;6.50;99.90
15257;DHT22;7731;50.720;6.912;2024-02-26T03:18:59;6.50;99.90
15257;DHT22;7731;50.720;6.912;2024-02-26T03:21:32;6.50;99.90
15257;DHT22;7731;50.720;6.912;2024-02-26T03:24:08;6.50;99.90
15257;DHT22;7731;50.720;6.912;2024-02-26T03:26:39;6.50;99.90
15257;DHT22;7731;50.720;6.912;2024-02-26T03:29:12;6.50;99.90
15257;DHT22;7731;50.720;6.912;2024-02-26T03:31:42;6.50;99.90
15257;DHT22;7731;50.720;6.912;2024-02-26T03:34:13;6.50;99.90
15257;DHT22;7731;50.720;6.912;2024-02-26T03:36:47;6.50;99.90
15257;DHT22;7731;50.720;6.912;2024-02-26T03:39:20;6.50;99.90
15257;DHT22;7731;50.720;6.912;2024-02-26T03:41:53;6.50;99.90
15257;DHT22;7731;50.720;6.912;2024-02-26T03:44:24;6.50;99.90
15257;DHT22;7731;50.720;6.912;2024-02-26T03:46:54;6.50;99.90
15257;DHT22;7731;50.720;6.912;2024-02-26T03:49:31;6.60;99.90
15257;DHT22;7731;50.720;6.912;2024-02-26T03:52:01;6.60;99.90
15257;DHT22;7731;50.720;6.912;2024-02-26T03:54:34;6.60;99.90
15257;DHT22;7731;50.720;6.912;2024-02-26T03:57:05;6.60;99.90
15257;DHT22;7731;50.720;6.912;2024-02-26T03:59:41;6.50;99.90
15257;DHT22;7731;50.720;6.912;2024-02-26T04:02:11;6.50;99.90
15257;DHT22;7731;50.720;6.912;2024-02-26T04:04:46;6.50;99.90
15257;DHT22;7731;50.720;6.912;2024-02-26T04:07:17;6.40;99.90
15257;DHT22;7731;50.720;6.912;2024-02-26T04:09:50;6.40;99.90
15257;DHT22;7731;50.720;6.912;2024-02-26T04:12:20;6.40;99.90
15257;DHT22;7731;50.720;6.912;2024-02-26T04:14:56;6.40;99.90
15257;DHT22;7731;50.720;6.912;2024-02-26T04:17:26;6.40;99.90
15257;DHT22;7731;50.720;6.912;2024-02-26T04:19:56;6.50;99.90
15257;DHT22;7731;50.720;6.912;2024-02-26T04:22:27;6.50;99.90
15257;DHT22;7731;50.720;6.912;2024-02-26T04:25:06;6.60;99.90
15257;DHT22;7731;50.720;6.912;2024-02-26T04:27:37;6.60;99.90
15257;DHT22;7731;50.720;6.912;2024-02-26T04:30:09;6.60;99.90
15257;DHT22;7731;50.720;6.912;2024-02-26T04:32:40;6.70;99.90
15257;DHT22;7731;50.720;6.912;2024-02-26T04:35:10;6.70;99.90
15257;DHT22;7731;50.720;6.912;2024-02-26T04:37:41;6.60;99.90
15257;DHT22;7731;50.720;6.912;2024-02-26T04:40:18;6.60;99.90
15257;DHT22;7731;50.720;6.912;2024-02-26T04:42:57;6.50;99.90
15257;DHT22;7731;50.720;6.912;2024-02-26T04:45:31;6.50;99.90
15257;DHT22;7731;50.720;6.912;2024-02-26T04:48:04;6.50;99.90
15257;DHT22;7731;50.720;6.912;2024-02-26T04:50:35;6.50;99.90
15257;DHT22;7731;50.720;6.912;2024-02-26T04:53:06;6.50;99.90
15257;DHT22;7731;50.720;6.912;2024-02-26T04:55:36;6.50;99.90
15257;DHT22;7731;50.720;6.912;2024-02-26T04:58:09;6.50;99.90
15257;DHT22;7731;50.720;6.912;2024-02-26T05:00:42;6.50;99.90
15257;DHT22;7731;50.720;6.912;2024-02-26T05:03:13;6.40;99.90
15257;DHT22;7731;50.720;6.912;2024-02-26T05:05:49;6.40;99.90
15257;DHT22;7731;50.720;6.912;2024-02-26T05:08:24;6.40;99.90
15257;DHT22;7731;50.720;6.912;2024-02-26T05:10:58;6.40;99.90
15257;DHT22;7731;50.720;6.912;2024-02-26T05:13:29;6.40;99.90
15257;DHT22;7731;50.720;6.912;2024-02-26T05:16:00;6.40;99.90
15257;DHT22;7731;50.720;6.912;2024-02-26T05:18:30;6.40;99.90
15257;DHT22;7731;50.720;6.912;2024-02-26T05:21:09;6.40;99.90
15257;DHT22;7731;50.720;6.912;2024-02-26T05:23:48;6.40;99.90
15257;DHT22;7731;50.720;6.912;2024-02-26T05:26:24;6.40;99.90
15257;DHT22;7731;50.720;6.912;2024-02-26T05:28:57;6.50;99.90
15257;DHT22;7731;50.720;6.912;2024-02-26T05:31:28;6.50;99.90
15257;DHT22;7731;50.720;6.912;2024-02-26T05:34:01;6.50;99.90
15257;DHT22;7731;50.720;6.912;2024-02-26T05:36:32;6.50;99.90
15257;DHT22;7731;50.720;6.912;2024-02-26T05:39:03;6.50;99.90
15257;DHT22;7731;50.720;6.912;2024-02-26T05:41:41;6.50;99.90
15257;DHT22;7731;50.720;6.912;2024-02-26T05:44:14;6.50;99.90
15257;DHT22;7731;50.720;6.912;2024-02-26T05:46:45;6.40;99.90
15257;DHT22;7731;50.720;6.912;2024-02-26T05:49:15;6.40;99.90
15257;DHT22;7731;50.720;6.912;2024-02-26T05:51:45;6.40;99.90
15257;DHT22;7731;50.720;6.912;2024-02-26T05:54:16;6.40;99.90
15257;DHT22;7731;50.720;6.912;2024-02-26T05:56:51;6.40;99.90
15257;DHT22;7731;50.720;6.912;2024-02-26T05:59:21;6.40;99.90
15257;DHT22;7731;50.720;6.912;2024-02-26T06:01:54;6.40;99.90
15257;DHT22;7731;50.720;6.912;2024-02-26T06:04:24;6.40;99.90
15257;DHT22;7731;50.720;6.912;2024-02-26T06:06:58;6.40;99.90
15257;DHT22;7731;50.720;6.912;2024-02-26T06:09:28;6.40;99.90
15257;DHT22;7731;50.720;6.912;2024-02-26T06:12:01;6.40;99.90
15257;DHT22;7731;50.720;6.912;2024-02-26T06:14:40;6.40;99.90
15257;DHT22;7731;50.720;6.912;2024-02-26T06:17:11;6.40;99.90
15257;DHT22;7731;50.720;6.912;2024-02-26T06:19:41;6.40;99.90
15257;DHT22;7731;50.720;6.912;2024-02-26T06:22:12;6.40;99.90
15257;DHT22;7731;50.720;6.912;2024-02-26T06:24:42;6.40;99.90
15257;DHT22;7731;50.720;6.912;2024-02-26T06:27:18;6.40;99.90
15257;DHT22;7731;50.720;6.912;2024-02-26T06:29:49;6.40;99.90
15257;DHT22;7731;50.720;6.912;2024-02-26T06:32:26;6.40;99.90
15257;DHT22;7731;50.720;6.912;2024-02-26T06:34:56;6.40;99.90
15257;DHT22;7731;50.720;6.912;2024-02-26T06:37:28;6.40;99.90
15257;DHT22;7731;50.720;6.912;2024-02-26T06:39:59;6.40;99.90
15257;DHT22;7731;50.720;6.912;2024-02-26T06:42:33;6.40;99.90
15257;DHT22;7731;50.720;6.912;2024-02-26T06:45:05;6.40;99.90
15257;DHT22;7731;50.720;6.912;2024-02-26T06:47:38;6.30;99.90
15257;DHT22;7731;50.720;6.912;2024-02-26T06:50:12;6.30;99.90
15257;DHT22;7731;50.720;6.912;2024-02-26T06:52:44;6.30;99.90
15257;DHT22;7731;50.720;6.912;2024-02-26T06:55:14;6.30;99.90
15257;DHT22;7731;50.720;6.912;2024-02-26T06:57:47;6.40;99.90
15257;DHT22;7731;50.720;6.912;2024-02-26T07:00:18;6.40;99.90
15257;DHT22;7731;50.720;6.912;2024-02-26T07:02:49;6.40;99.90
15257;DHT22;7731;50.720;6.912;2024-02-26T07:05:19;6.30;99.90
15257;DHT22;7731;50.720;6.912;2024-02-26T07:07:50;6.30;99.90
15257;DHT22;7731;50.720;6.912;2024-02-26T07:10:20;6.20;99.90
15257;DHT22;7731;50.720;6.912;2024-02-26T07:12:53;6.30;99.90
15257;DHT22;7731;50.720;6.912;2024-02-26T07:15:24;6.30;99.90
15257;DHT22;7731;50.720;6.912;2024-02-26T07:17:54;6.30;99.90
15257;DHT22;7731;50.720;6.912;2024-02-26T07:20:30;6.30;99.90
15257;DHT22;7731;50.720;6.912;2024-02-26T07:23:01;6.30;99.90
15257;DHT22;7731;50.720;6.912;2024-02-26T07:25:33;6.30;99.90
15257;DHT22;7731;50.720;6.912;2024-02-26T07:28:12;6.30;99.90
15257;DHT22;7731;50.720;6.912;2024-02-26T07:30:42;6.30;99.90
15257;DHT22;7731;50.720;6.912;2024-02-26T07:33:15;6.30;99.90
15257;DHT22;7731;50.720;6.912;2024-02-26T07:35:46;6.30;99.90
15257;DHT22;7731;50.720;6.912;2024-02-26T07:38:22;6.30;99.90
15257;DHT22;7731;50.720;6.912;2024-02-26T07:41:14;6.30;99.90
15257;DHT22;7731;50.720;6.912;2024-02-26T07:43:47;6.40;99.90
15257;DHT22;7731;50.720;6.912;2024-02-26T07:46:18;6.40;99.90
15257;DHT22;7731;50.720;6.912;2024-02-26T07:48:48;6.40;99.90
15257;DHT22;7731;50.720;6.912;2024-02-26T07:51:22;6.40;99.90
15257;DHT22;7731;50.720;6.912;2024-02-26T07:53:52;6.40;99.90
15257;DHT22;7731;50.720;6.912;2024-02-26T07:56:26;6.30;99.90
15257;DHT22;7731;50.720;6.912;2024-02-26T07:59:01;6.40;99.90
15257;DHT22;7731;50.720;6.912;2024-02-26T08:01:31;6.40;99.90
15257;DHT22;7731;50.720;6.912;2024-02-26T08:04:13;6.40;99.90
15257;DHT22;7731;50.720;6.912;2024-02-26T08:06:46;6.40;99.90
15257;DHT22;7731;50.720;6.912;2024-02-26T08:09:17;6.40;99.90
15257;DHT22;7731;50.720;6.912;2024-02-26T08:11:50;6.40;99.90
15257;DHT22;7731;50.720;6.912;2024-02-26T08:14:23;6.40;99.90
15257;DHT22;7731;50.720;6.912;2024-02-26T08:16:53;6.40;99.90
15257;DHT22;7731;50.720;6.912;2024-02-26T08:19:24;6.40;99.90
15257;DHT22;7731;50.720;6.912;2024-02-26T08:21:57;6.40;99.90
15257;DHT22;7731;50.720;6.912;2024-02-26T08:24:31;6.50;99.90
15257;DHT22;7731;50.720;6.912;2024-02-26T08:27:01;6.50;99.90
15257;DHT22;7731;50.720;6.912;2024-02-26T08:29:34;6.50;99.90
15257;DHT22;7731;50.720;6.912;2024-02-26T08:32:05;6.50;99.90
15257;DHT22;7731;50.720;6.912;2024-02-26T08:34:36;6.50;99.90
15257;DHT22;7731;50.720;6.912;2024-02-26T08:37:12;6.50;99.90
15257;DHT22;7731;50.720;6.912;2024-02-26T08:39:43;6.50;99.90
15257;DHT22;7731;50.720;6.912;2024-02-26T08:42:13;6.50;99.90
15257;DHT22;7731;50.720;6.912;2024-02-26T08:44:46;6.60;99.90
15257;DHT22;7731;50.720;6.912;2024-02-26T08:47:17;6.50;99.90
15257;DHT22;7731;50.720;6.912;2024-02-26T08:49:50;6.50;99.90
15257;DHT22;7731;50.720;6.912;2024-02-26T08:52:21;6.50;99.90
15257;DHT22;7731;50.720;6.912;2024-02-26T08:54:59;6.50;99.90
15257;DHT22;7731;50.720;6.912;2024-02-26T08:57:30;6.50;99.90
15257;DHT22;7731;50.720;6.912;2024-02-26T09:00:08;6.40;99.90
15257;DHT22;7731;50.720;6.912;2024-02-26T09:02:43;6.40;99.90
15257;DHT22;7731;50.720;6.912;2024-02-26T09:05:13;6.40;99.90
15257;DHT22;7731;50.720;6.912;2024-02-26T09:07:44;6.40;99.90
15257;DHT22;7731;50.720;6.912;2024-02-26T09:10:28;6.50;99.90
15257;DHT22;7731;50.720;6.912;2024-02-26T09:13:01;6.60;99.90
15257;DHT22;7731;50.720;6.912;2024-02-26T09:15:34;6.70;99.90
15257;DHT22;7731;50.720;6.912;2024-02-26T09:18:10;6.60;99.90
15257;DHT22;7731;50.720;6.912;2024-02-26T09:20:42;6.70;99.90
15257;DHT22;7731;50.720;6.912;2024-02-26T09:23:13;6.60;99.90
15257;DHT22;7731;50.720;6.912;2024-02-26T09:25:43;6.60;99.90
15257;DHT22;7731;50.720;6.912;2024-02-26T09:28:13;6.60;99.90
15257;DHT22;7731;50.720;6.912;2024-02-26T09:30:47;6.60;99.90
15257;DHT22;7731;50.720;6.912;2024-02-26T09:33:22;6.60;99.90
15257;DHT22;7731;50.720;6.912;2024-02-26T09:35:52;6.50;99.90
15257;DHT22;7731;50.720;6.912;2024-02-26T09:38:23;6.50;99.90
15257;DHT22;7731;50.720;6.912;2024-02-26T09:40:53;6.60;99.90
15257;DHT22;7731;50.720;6.912;2024-02-26T09:43:24;6.60;99.90
15257;DHT22;7731;50.720;6.912;2024-02-26T09:46:09;6.70;99.90
15257;DHT22;7731;50.720;6.912;2024-02-26T09:48:41;6.70;99.90
15257;DHT22;7731;50.720;6.912;2024-02-26T09:51:23;6.70;99.90
15257;DHT22;7731;50.720;6.912;2024-02-26T09:54:09;6.70;99.90
15257;DHT22;7731;50.720;6.912;2024-02-26T09:56:43;6.80;99.90
15257;DHT22;7731;50.720;6.912;2024-02-26T09:59:35;6.90;99.90
15257;DHT22;7731;50.720;6.912;2024-02-26T10:02:15;7.00;99.90
15257;DHT22;7731;50.720;6.912;2024-02-26T10:04:49;7.10;99.90
15257;DHT22;7731;50.720;6.912;2024-02-26T10:07:23;7.20;99.90
15257;DHT22;7731;50.720;6.912;2024-02-26T10:10:01;7.30;99.90
15257;DHT22;7731;50.720;6.912;2024-02-26T10:12:33;7.40;99.90
15257;DHT22;7731;50.720;6.912;2024-02-26T10:15:04;7.60;99.90
15257;DHT22;7731;50.720;6.912;2024-02-26T10:17:38;7.60;99.90
15257;DHT22;7731;50.720;6.912;2024-02-26T10:20:12;7.80;99.90
15257;DHT22;7731;50.720;6.912;2024-02-26T10:22:52;7.80;99.90
15257;DHT22;7731;50.720;6.912;2024-02-26T10:25:30;7.80;99.90
15257;DHT22;7731;50.720;6.912;2024-02-26T10:28:01;7.90;99.90
15257;DHT22;7731;50.720;6.912;2024-02-26T10:30:32;7.80;99.90
15257;DHT22;7731;50.720;6.912;2024-02-26T10:33:11;7.70;99.90
15257;DHT22;7731;50.720;6.912;2024-02-26T10:35:45;7.70;99.90
15257;DHT22;7731;50.720;6.912;2024-02-26T10:38:16;7.80;99.90
15257;DHT22;7731;50.720;6.912;2024-02-26T10:40:49;8.00;99.90
15257;DHT22;7731;50.720;6.912;2024-02-26T10:43:19;8.00;99.90
15257;DHT22;7731;50.720;6.912;2024-02-26T10:45:49;8.00;99.90
15257;DHT22;7731;50.720;6.912;2024-02-26T10:48:26;8.00;99.90
15257;DHT22;7731;50.720;6.912;2024-02-26T10:50:57;8.10;99.90
15257;DHT22;7731;50.720;6.912;2024-02-26T10:53:29;7.90;99.90
15257;DHT22;7731;50.720;6.912;2024-02-26T10:56:04;8.00;99.90
15257;DHT22;7731;50.720;6.912;2024-02-26T10:58:39;7.90;99.90
15257;DHT22;7731;50.720;6.912;2024-02-26T11:01:11;7.90;99.90
15257;DHT22;7731;50.720;6.912;2024-02-26T11:03:45;7.80;99.90
15257;DHT22;7731;50.720;6.912;2024-02-26T11:06:16;7.80;99.90
15257;DHT22;7731;50.720;6.912;2024-02-26T11:08:48;7.70;99.90
15257;DHT22;7731;50.720;6.912;2024-02-26T11:11:19;7.80;99.90
15257;DHT22;7731;50.720;6.912;2024-02-26T11:13:51;7.80;99.90
15257;DHT22;7731;50.720;6.912;2024-02-26T11:16:23;7.80;99.90
15257;DHT22;7731;50.720;6.912;2024-02-26T11:19:00;7.90;99.90
15257;DHT22;7731;50.720;6.912;2024-02-26T11:21:32;7.90;99.90
15257;DHT22;7731;50.720;6.912;2024-02-26T11:24:11;7.80;99.90
15257;DHT22;7731;50.720;6.912;2024-02-26T11:26:48;7.90;99.90
15257;DHT22;7731;50.720;6.912;2024-02-26T11:29:29;7.80;99.90
15257;DHT22;7731;50.720;6.912;2024-02-26T11:32:07;7.70;99.90
15257;DHT22;7731;50.720;6.912;2024-02-26T11:34:42;7.70;99.90
15257;DHT22;7731;50.720;6.912;2024-02-26T11:37:17;7.70;99.90
15257;DHT22;7731;50.720;6.912;2024-02-26T11:39:52;7.70;99.90
15257;DHT22;7731;50.720;6.912;2024-02-26T11:42:24;7.80;99.90
15257;DHT22;7731;50.720;6.912;2024-02-26T11:45:02;7.80;99.90
15257;DHT22;7731;50.720;6.912;2024-02-26T11:47:35;7.80;99.90
15257;DHT22;7731;50.720;6.912;2024-02-26T11:50:40;7.90;99.90
15257;DHT22;7731;50.720;6.912;2024-02-26T11:53:21;8.00;99.90
15257;DHT22;7731;50.720;6.912;2024-02-26T11:56:21;8.00;99.90
15257;DHT22;7731;50.720;6.912;2024-02-26T11:59:00;8.10;99.90
15257;DHT22;7731;50.720;6.912;2024-02-26T12:01:42;8.00;99.90
15257;DHT22;7731;50.720;6.912;2024-02-26T12:04:18;8.00;99.90
15257;DHT22;7731;50.720;6.912;2024-02-26T12:06:56;8.00;99.90
15257;DHT22;7731;50.720;6.912;2024-02-26T12:09:38;8.10;99.90
15257;DHT22;7731;50.720;6.912;2024-02-26T12:12:17;8.20;99.90
15257;DHT22;7731;50.720;6.912;2024-02-26T12:14:52;8.30;99.90
15257;DHT22;7731;50.720;6.912;2024-02-26T12:17:27;8.30;99.90
15257;DHT22;7731;50.720;6.912;2024-02-26T12:20:08;8.20;99.90
15257;DHT22;7731;50.720;6.912;2024-02-26T12:22:47;8.10;99.90
15257;DHT22;7731;50.720;6.912;2024-02-26T12:25:22;8.20;99.90
15257;DHT22;7731;50.720;6.912;2024-02-26T12:27:54;8.20;99.90
15257;DHT22;7731;50.720;6.912;2024-02-26T12:30:26;8.20;99.90
15257;DHT22;7731;50.720;6.912;2024-02-26T12:33:02;8.30;99.90
15257;DHT22;7731;50.720;6.912;2024-02-26T12:35:44;8.40;99.90
15257;DHT22;7731;50.720;6.912;2024-02-26T12:38:20;8.40;99.90
15257;DHT22;7731;50.720;6.912;2024-02-26T12:40:54;8.30;99.90
15257;DHT22;7731;50.720;6.912;2024-02-26T12:43:28;8.30;99.90
15257;DHT22;7731;50.720;6.912;2024-02-26T12:45:58;8.20;99.90
15257;DHT22;7731;50.720;6.912;2024-02-26T12:48:32;8.20;99.90
15257;DHT22;7731;50.720;6.912;2024-02-26T12:51:04;8.10;99.90
15257;DHT22;7731;50.720;6.912;2024-02-26T12:53:37;8.20;99.90
15257;DHT22;7731;50.720;6.912;2024-02-26T12:56:09;8.30;99.90
15257;DHT22;7731;50.720;6.912;2024-02-26T12:58:41;8.40;99.90
15257;DHT22;7731;50.720;6.912;2024-02-26T13:01:15;8.30;99.90
15257;DHT22;7731;50.720;6.912;2024-02-26T13:03:49;8.30;99.90
15257;DHT22;7731;50.720;6.912;2024-02-26T13:06:21;8.20;99.90
15257;DHT22;7731;50.720;6.912;2024-02-26T13:09:00;8.20;99.90
15257;DHT22;7731;50.720;6.912;2024-02-26T13:11:30;8.10;99.90
15257;DHT22;7731;50.720;6.912;2024-02-26T13:14:01;8.20;99.90
15257;DHT22;7731;50.720;6.912;2024-02-26T13:16:38;8.10;99.90
15257;DHT22;7731;50.720;6.912;2024-02-26T13:19:21;8.00;99.90
15257;DHT22;7731;50.720;6.912;2024-02-26T13:21:55;8.00;99.90
15257;DHT22;7731;50.720;6.912;2024-02-26T13:24:31;7.90;99.90
15257;DHT22;7731;50.720;6.912;2024-02-26T13:27:04;8.00;99.90
15257;DHT22;7731;50.720;6.912;2024-02-26T13:29:35;7.80;99.90
15257;DHT22;7731;50.720;6.912;2024-02-26T13:32:06;7.80;99.90
15257;DHT22;7731;50.720;6.912;2024-02-26T13:34:36;7.70;99.90
15257;DHT22;7731;50.720;6.912;2024-02-26T13:37:07;7.70;99.90
15257;DHT22;7731;50.720;6.912;2024-02-26T13:39:46;7.80;99.90
15257;DHT22;7731;50.720;6.912;2024-02-26T13:42:16;7.80;99.90
15257;DHT22;7731;50.720;6.912;2024-02-26T13:44:46;7.80;99.90
15257;DHT22;7731;50.720;6.912;2024-02-26T13:47:17;7.90;99.90
15257;DHT22;7731;50.720;6.912;2024-02-26T13:49:47;7.90;99.90
15257;DHT22;7731;50.720;6.912;2024-02-26T13:52:17;7.90;99.90
15257;DHT22;7731;50.720;6.912;2024-02-26T13:54:51;7.90;99.90
15257;DHT22;7731;50.720;6.912;2024-02-26T13:57:28;7.90;99.90
15257;DHT22;7731;50.720;6.912;2024-02-26T14:00:02;7.90;99.90
15257;DHT22;7731;50.720;6.912;2024-02-26T14:02:36;7.90;99.90
15257;DHT22;7731;50.720;6.912;2024-02-26T14:05:07;7.80;99.90
15257;DHT22;7731;50.720;6.912;2024-02-26T14:07:40;7.80;99.90
15257;DHT22;7731;50.720;6.912;2024-02-26T14:10:17;7.80;99.90
15257;DHT22;7731;50.720;6.912;2024-02-26T14:12:50;7.80;99.90
15257;DHT22;7731;50.720;6.912;2024-02-26T14:15:20;7.80;99.90
15257;DHT22;7731;50.720;6.912;2024-02-26T14:17:54;7.80;99.90
15257;DHT22;7731;50.720;6.912;2024-02-26T14:20:25;7.80;99.90
15257;DHT22;7731;50.720;6.912;2024-02-26T14:22:56;7.90;99.90
15257;DHT22;7731;50.720;6.912;2024-02-26T14:25:29;8.00;99.90
15257;DHT22;7731;50.720;6.912;2024-02-26T14:28:00;8.00;99.90
15257;DHT22;7731;50.720;6.912;2024-02-26T14:30:30;8.00;99.90
15257;DHT22;7731;50.720;6.912;2024-02-26T14:33:00;8.10;99.90
15257;DHT22;7731;50.720;6.912;2024-02-26T14:35:31;8.10;99.90
15257;DHT22;7731;50.720;6.912;2024-02-26T14:38:01;8.20;99.90
15257;DHT22;7731;50.720;6.912;2024-02-26T14:40:37;8.20;99.90
15257;DHT22;7731;50.720;6.912;2024-02-26T14:43:07;8.20;99.90
15257;DHT22;7731;50.720;6.912;2024-02-26T14:45:38;8.10;99.90
15257;DHT22;7731;50.720;6.912;2024-02-26T14:48:09;8.10;99.90
15257;DHT22;7731;50.720;6.912;2024-02-26T14:50:43;8.00;99.90
15257;DHT22;7731;50.720;6.912;2024-02-26T14:53:13;8.00;99.90
15257;DHT22;7731;50.720;6.912;2024-02-26T14:55:46;7.90;99.90
15257;DHT22;7731;50.720;6.912;2024-02-26T14:58:17;7.90;99.90
15257;DHT22;7731;50.720;6.912;2024-02-26T15:00:47;7.90;99.90
15257;DHT22;7731;50.720;6.912;2024-02-26T15:03:18;7.90;99.90
15257;DHT22;7731;50.720;6.912;2024-02-26T15:05:48;8.00;99.90
15257;DHT22;7731;50.720;6.912;2024-02-26T15:08:21;8.00;99.90
15257;DHT22;7731;50.720;6.912;2024-02-26T15:10:57;8.00;99.90
15257;DHT22;7731;50.720;6.912;2024-02-26T15:13:28;8.00;99.90
15257;DHT22;7731;50.720;6.912;2024-02-26T15:15:58;7.90;99.90
15257;DHT22;7731;50.720;6.912;2024-02-26T15:18:31;7.90;99.90
15257;DHT22;7731;50.720;6.912;2024-02-26T15:21:02;7.90;99.90
15257;DHT22;7731;50.720;6.912;2024-02-26T15:23:34;7.90;99.90
15257;DHT22;7731;50.720;6.912;2024-02-26T15:26:15;7.90;99.90
15257;DHT22;7731;50.720;6.912;2024-02-26T15:28:47;7.90;99.90
15257;DHT22;7731;50.720;6.912;2024-02-26T15:31:21;8.00;99.90
15257;DHT22;7731;50.720;6.912;2024-02-26T15:33:54;8.00;99.90
15257;DHT22;7731;50.720;6.912;2024-02-26T15:36:24;8.00;99.90
15257;DHT22;7731;50.720;6.912;2024-02-26T15:38:58;8.00;99.90
15257;DHT22;7731;50.720;6.912;2024-02-26T15:41:34;8.00;99.90
15257;DHT22;7731;50.720;6.912;2024-02-26T15:44:06;8.00;99.90
15257;DHT22;7731;50.720;6.912;2024-02-26T15:46:39;8.00;99.90
15257;DHT22;7731;50.720;6.912;2024-02-26T15:49:10;8.00;99.90
15257;DHT22;7731;50.720;6.912;2024-02-26T15:51:42;8.00;99.90
15257;DHT22;7731;50.720;6.912;2024-02-26T15:54:15;8.00;99.90
15257;DHT22;7731;50.720;6.912;2024-02-26T15:56:51;8.10;99.90
15257;DHT22;7731;50.720;6.912;2024-02-26T15:59:24;8.10;99.90
15257;DHT22;7731;50.720;6.912;2024-02-26T16:01:57;8.10;99.90
15257;DHT22;7731;50.720;6.912;2024-02-26T16:04:27;8.00;99.90
15257;DHT22;7731;50.720;6.912;2024-02-26T16:07:03;8.00;99.90
15257;DHT22;7731;50.720;6.912;2024-02-26T16:09:54;8.10;99.90
15257;DHT22;7731;50.720;6.912;2024-02-26T16:12:35;8.10;99.90
15257;DHT22;7731;50.720;6.912;2024-02-26T16:15:10;8.00;99.90
15257;DHT22;7731;50.720;6.912;2024-02-26T16:17:43;7.90;99.90
15257;DHT22;7731;50.720;6.912;2024-02-26T16:20:18;8.00;99.90
15257;DHT22;7731;50.720;6.912;2024-02-26T16:22:53;7.90;99.90
15257;DHT22;7731;50.720;6.912;2024-02-26T16:25:46;7.90;99.90
15257;DHT22;7731;50.720;6.912;2024-02-26T16:28:27;8.00;99.90
15257;DHT22;7731;50.720;6.912;2024-02-26T16:30:58;8.00;99.90
15257;DHT22;7731;50.720;6.912;2024-02-26T16:33:29;7.90;99.90
15257;DHT22;7731;50.720;6.912;2024-02-26T16:36:03;8.00;99.90
15257;DHT22;7731;50.720;6.912;2024-02-26T16:38:33;8.00;99.90
15257;DHT22;7731;50.720;6.912;2024-02-26T16:41:04;8.00;99.90
15257;DHT22;7731;50.720;6.912;2024-02-26T16:43:40;8.00;99.90
15257;DHT22;7731;50.720;6.912;2024-02-26T16:46:10;8.10;99.90
15257;DHT22;7731;50.720;6.912;2024-02-26T16:48:44;8.00;99.90